Time;durP1;ratioP1;P1;durP2;ratioP2;P2;SDS_P1;SDS_P2;PMS_P1;PMS_P2;Temp;Humidity;BMP_temperature;BMP_pressure;BME280_temperature;BME280_humidity;BME280_pressure;Samples;Min_cycle;Max_cycle;Signal;HPM_P1;HPM_P2
2024/01/05 00:02:07;;;;;;;27.45;20.15;;;;;;;15.92;80.36;101249.03;143723;639;47004;-65
2024/01/05 00:04:33;;;;;;;26.70;18.42;;;;;;;15.92;80.34;101257.16;143720;648;47010;-66
2024/01/05 00:06:59;;;;;;;24.83;16.30;;;;;;;15.99;79.96;101257.09;143720;648;47006;-66
2024/01/05 00:09:26;;;;;;;26.12;18.02;;;;;;;15.91;80.35;101260.94;143724;611;47008;-66
2024/01/05 00:11:52;;;;;;;22.15;17.08;;;;;;;15.90;80.69;101267.37;143726;589;46008;-65
2024/01/05 00:14:19;;;;;;;22.85;16.45;;;;;;;15.88;80.37;101264.91;143726;577;46010;-66
2024/01/05 00:16:46;;;;;;;22.42;15.40;;;;;;;15.83;80.84;101277.41;143720;598;47931;-65
2024/01/05 00:19:13;;;;;;;24.95;14.13;;;;;;;15.85;80.49;101283.44;143723;574;46008;-66
2024/01/05 00:21:39;;;;;;;19.50;14.52;;;;;;;15.81;80.92;101283.06;143722;616;47004;-66
2024/01/05 00:24:05;;;;;;;22.40;14.48;;;;;;;15.76;81.22;101291.00;143723;615;47010;-65
2024/01/05 00:26:32;;;;;;;20.33;14.82;;;;;;;15.75;81.76;101292.03;143720;574;47006;-65
2024/01/05 00:28:58;;;;;;;20.42;15.18;;;;;;;15.68;81.91;101294.81;143722;569;46924;-66
2024/01/05 00:31:24;;;;;;;18.75;14.45;;;;;;;15.60;82.20;101290.47;143722;598;47004;-66
2024/01/05 00:33:51;;;;;;;18.80;14.18;;;;;;;15.58;82.40;101297.16;143723;650;47010;-66
2024/01/05 00:36:17;;;;;;;20.23;14.68;;;;;;;15.57;82.83;101311.75;143721;566;47006;-66
2024/01/05 00:38:47;;;;;;;26.75;17.23;;;;;;;15.55;82.94;101311.13;143723;652;46009;-65
2024/01/05 00:41:14;;;;;;;28.38;18.70;;;;;;;15.55;83.03;101305.72;143720;643;47004;-66
2024/01/05 00:43:41;;;;;;;29.15;19.77;;;;;;;15.53;82.90;101308.63;143723;592;46012;-65
2024/01/05 00:46:07;;;;;;;28.15;18.55;;;;;;;15.50;82.59;101311.81;143720;584;47006;-65
2024/01/05 00:48:34;;;;;;;28.15;17.05;;;;;;;15.50;83.03;101308.25;143722;659;47008;-65
2024/01/05 00:51:00;;;;;;;24.65;16.33;;;;;;;15.38;83.38;101314.34;143724;667;47004;-66
2024/01/05 00:53:27;;;;;;;18.12;14.35;;;;;;;15.28;83.64;101313.97;143720;615;47006;-66
2024/01/05 00:55:53;;;;;;;22.08;14.65;;;;;;;15.28;83.74;101320.22;143723;612;47006;-66
2024/01/05 00:58:19;;;;;;;21.73;14.18;;;;;;;15.30;83.39;101320.84;143723;605;46008;-65
2024/01/05 01:00:46;;;;;;;20.70;13.38;;;;;;;15.31;83.99;101322.50;143725;632;47006;-65
2024/01/05 01:03:12;;;;;;;24.83;13.65;;;;;;;15.31;84.13;101330.62;143720;569;47010;-66
2024/01/05 01:05:38;;;;;;;19.08;13.50;;;;;;;15.28;84.12;101325.66;143723;595;47006;-67
2024/01/05 01:08:05;;;;;;;22.90;14.65;;;;;;;15.28;84.39;101324.78;143721;577;47006;-67
2024/01/05 01:10:31;;;;;;;21.10;15.43;;;;;;;15.26;83.60;101322.31;143726;576;46008;-67
2024/01/05 01:12:57;;;;;;;21.27;13.05;;;;;;;15.24;83.62;101329.81;143723;603;46010;-67
2024/01/05 01:15:24;;;;;;;23.50;13.13;;;;;;;15.26;83.89;101325.03;143722;599;47006;-68
2024/01/05 01:17:50;;;;;;;17.58;10.57;;;;;;;15.27;83.33;101337.50;143722;635;47002;-67
2024/01/05 01:20:16;;;;;;;13.75;7.62;;;;;;;15.29;82.95;101326.47;143723;574;47004;-67
2024/01/05 01:22:43;;;;;;;13.43;7.18;;;;;;;15.23;82.26;101333.56;143720;590;47010;-66
2024/01/05 01:25:09;;;;;;;10.65;7.22;;;;;;;15.22;82.37;101331.91;143721;589;47006;-66
2024/01/05 01:27:35;;;;;;;10.43;6.85;;;;;;;15.17;82.18;101326.31;143724;614;46008;-66
2024/01/05 01:30:04;;;;;;;8.90;5.95;;;;;;;15.23;81.87;101320.03;143725;691;47006;-66
2024/01/05 01:32:30;;;;;;;10.90;5.55;;;;;;;15.26;82.10;101326.91;143721;577;47006;-68
2024/01/05 01:34:56;;;;;;;9.63;6.07;;;;;;;15.24;81.94;101324.41;143720;584;47006;-67
2024/01/05 01:37:23;;;;;;;12.05;6.37;;;;;;;15.24;82.27;101326.28;143722;577;47008;-67
2024/01/05 01:39:50;;;;;;;8.85;6.43;;;;;;;15.21;82.22;101329.44;143724;611;47006;-68
2024/01/05 01:42:16;;;;;;;13.70;7.55;;;;;;;15.19;82.75;101334.22;143723;586;47010;-67
2024/01/05 01:44:42;;;;;;;11.90;7.22;;;;;;;15.14;82.46;101326.75;143723;593;47006;-67
2024/01/05 01:47:09;;;;;;;11.00;6.82;;;;;;;15.09;83.05;101331.97;143725;620;47004;-66
2024/01/05 01:49:35;;;;;;;13.07;7.95;;;;;;;15.03;83.64;101338.22;143723;569;47004;-67
2024/01/05 01:52:02;;;;;;;11.15;7.32;;;;;;;14.98;83.81;101330.75;143724;577;46012;-67
2024/01/05 01:54:32;;;;;;;13.38;7.47;;;;;;;14.99;83.73;101333.25;143721;567;47006;-66
2024/01/05 01:56:59;;;;;;;15.13;9.07;;;;;;;15.00;83.36;101331.38;143724;619;47008;-68
2024/01/05 01:59:26;;;;;;;13.50;9.05;;;;;;;14.89;83.51;101324.75;143723;573;47004;-67
2024/01/05 04:02:21;;;;;;;36.85;23.30;;;;;;;14.09;89.43;101396.72;143733;618;47006;-66
2024/01/05 04:04:48;;;;;;;36.85;27.73;;;;;;;14.09;89.58;101399.41;143730;584;47006;-68
2024/01/05 04:07:14;;;;;;;30.80;21.80;;;;;;;14.10;89.25;101400.22;143730;670;47002;-66
2024/01/05 04:09:41;;;;;;;26.70;17.92;;;;;;;14.12;89.04;101406.25;143732;580;47004;-67
2024/01/05 04:12:07;;;;;;;26.98;14.57;;;;;;;14.13;89.66;101399.81;143729;594;47010;-67
2024/01/05 04:14:35;;;;;;;20.00;13.02;;;;;;;14.10;89.81;101397.53;143727;696;47006;-67
2024/01/05 04:17:01;;;;;;;22.83;11.63;;;;;;;14.07;90.24;101406.87;143725;567;50003;-68
2024/01/05 04:19:29;;;;;;;23.20;12.32;;;;;;;14.08;89.77;101416.66;143729;589;47004;-67
2024/01/05 04:21:56;;;;;;;14.20;9.60;;;;;;;14.05;89.93;101416.22;143731;628;46013;-67
2024/01/05 04:24:22;;;;;;;19.70;9.50;;;;;;;13.98;89.88;101426.19;143728;622;47006;-67
2024/01/05 04:26:49;;;;;;;14.80;9.20;;;;;;;13.90;90.21;101419.91;143731;573;47008;-67
2024/01/05 04:29:15;;;;;;;16.95;9.73;;;;;;;13.90;91.30;101425.31;143733;589;47007;-68
2024/01/05 04:31:41;;;;;;;16.77;9.52;;;;;;;13.92;90.91;101430.53;143729;651;47012;-67
2024/01/05 04:34:08;;;;;;;21.20;12.35;;;;;;;13.89;91.25;101428.22;143729;602;47006;-68
2024/01/05 04:36:34;;;;;;;29.00;19.30;;;;;;;13.87;91.43;101431.13;143730;576;47008;-67
2024/01/05 04:39:01;;;;;;;35.53;23.25;;;;;;;13.90;91.51;101433.41;143731;582;47006;-68
2024/01/05 04:41:28;;;;;;;32.90;22.55;;;;;;;13.88;91.59;101446.28;143728;568;47012;-66
2024/01/05 04:43:54;;;;;;;26.20;17.77;;;;;;;13.82;91.74;101448.97;143727;593;47007;-66
2024/01/05 04:46:21;;;;;;;18.42;12.25;;;;;;;13.79;91.15;101456.44;143729;586;46006;-67
2024/01/05 04:48:47;;;;;;;20.90;12.68;;;;;;;13.80;89.97;101454.59;143731;578;47004;-68
2024/01/05 04:51:13;;;;;;;23.80;11.98;;;;;;;13.80;90.19;101450.00;143728;594;47010;-67
2024/01/05 04:53:40;;;;;;;20.70;12.32;;;;;;;13.86;90.08;101453.75;143729;575;47006;-67
2024/01/05 04:56:06;;;;;;;19.10;13.38;;;;;;;13.88;89.45;101446.28;143729;631;47008;-67
2024/01/05 04:58:33;;;;;;;19.08;12.73;;;;;;;13.91;89.59;101462.09;143731;651;47004;-67
2024/01/05 05:01:01;;;;;;;18.65;13.55;;;;;;;13.93;89.15;101467.31;143730;607;47010;-67
2024/01/05 05:03:29;;;;;;;18.30;13.82;;;;;;;13.90;89.12;101473.09;143727;566;48930;-66
2024/01/05 05:05:55;;;;;;;16.23;10.80;;;;;;;13.85;89.52;101472.88;143729;626;47009;-67
2024/01/05 05:08:21;;;;;;;18.87;10.00;;;;;;;13.83;90.15;101466.84;143732;629;47002;-67
2024/01/05 05:10:48;;;;;;;17.85;9.82;;;;;;;13.75;90.43;101473.25;143730;604;46012;-66
2024/01/05 05:13:14;;;;;;;17.35;9.50;;;;;;;13.76;90.08;101478.47;143729;590;47006;-67
2024/01/05 05:15:42;;;;;;;21.25;13.77;;;;;;;13.70;89.87;101487.34;143730;597;47008;-68
2024/01/05 05:18:08;;;;;;;27.73;15.18;;;;;;;13.69;90.05;101474.03;143731;599;47006;-66
2024/01/05 05:20:34;;;;;;;34.17;15.50;;;;;;;13.71;89.32;101480.91;143731;617;47012;-67
2024/01/05 05:23:01;;;;;;;35.05;17.15;;;;;;;13.67;89.77;101482.34;143731;573;47006;-66
2024/01/05 05:25:27;;;;;;;29.20;13.45;;;;;;;13.64;89.49;101477.34;143731;653;46008;-66
2024/01/05 05:27:53;;;;;;;23.45;13.75;;;;;;;13.63;89.63;101484.63;143734;627;46008;-66
2024/01/05 05:30:20;;;;;;;27.05;12.20;;;;;;;13.67;89.84;101479.66;143729;567;47013;-68
2024/01/05 05:32:46;;;;;;;22.77;12.48;;;;;;;13.63;89.16;101484.63;143728;578;47004;-67
2024/01/05 05:35:12;;;;;;;30.75;13.52;;;;;;;13.63;89.21;101498.13;143731;626;46007;-67
2024/01/05 05:37:39;;;;;;;26.58;12.35;;;;;;;13.63;89.55;101492.72;143732;575;47002;-68
2024/01/05 05:40:06;;;;;;;23.55;12.25;;;;;;;13.59;89.67;101504.13;143729;593;47008;-66
2024/01/05 05:42:33;;;;;;;25.67;13.10;;;;;;;13.62;89.73;101506.41;143728;568;47005;-68
2024/01/05 05:44:59;;;;;;;23.00;10.68;;;;;;;13.60;90.02;101508.47;143729;615;47000;-68
2024/01/05 05:47:25;;;;;;;15.68;10.60;;;;;;;13.58;90.31;101516.78;143731;599;47002;-67
2024/01/05 05:49:53;;;;;;;23.12;11.18;;;;;;;13.60;90.19;101517.41;143729;584;47008;-66
2024/01/05 05:52:19;;;;;;;19.62;10.45;;;;;;;13.58;90.62;101527.56;143730;618;47004;-68
2024/01/05 05:54:45;;;;;;;17.80;9.65;;;;;;;13.57;89.71;101517.81;143730;596;46006;-67
2024/01/05 05:57:12;;;;;;;22.08;9.45;;;;;;;13.58;90.10;101526.75;143731;644;47002;-68
2024/01/05 05:59:39;;;;;;;21.60;10.00;;;;;;;13.56;90.36;101520.72;143729;642;47011;-67
2024/01/05 06:02:05;;;;;;;19.90;10.30;;;;;;;13.57;90.33;101516.97;143726;584;47004;-67
2024/01/05 06:04:31;;;;;;;26.42;13.65;;;;;;;13.54;91.00;101520.91;143722;598;47006;-66
2024/01/05 06:06:57;;;;;;;39.13;20.25;;;;;;;13.51;91.27;101520.47;143725;581;47004;-65
2024/01/05 06:09:24;;;;;;;39.92;21.73;;;;;;;13.58;91.19;101526.75;143722;574;47008;-65
2024/01/05 06:11:51;;;;;;;34.10;17.75;;;;;;;13.67;90.88;101522.84;143724;593;47008;-67
2024/01/05 06:14:17;;;;;;;38.97;25.27;;;;;;;13.67;90.79;101520.12;143723;590;47007;-66
2024/01/05 06:16:43;;;;;;;45.92;25.83;;;;;;;13.71;90.82;101523.28;143727;686;47006;-66
2024/01/05 06:19:10;;;;;;;41.97;23.83;;;;;;;13.73;90.79;101523.91;143723;579;47010;-67
2024/01/05 06:21:36;;;;;;;37.13;21.73;;;;;;;13.72;90.66;101530.34;143721;600;47004;-68
2024/01/05 06:24:04;;;;;;;33.35;20.83;;;;;;;13.71;91.15;101534.91;143725;609;46921;-66
2024/01/05 06:26:31;;;;;;;45.12;21.05;;;;;;;13.73;91.06;101535.56;143727;577;47000;-67
2024/01/05 06:28:57;;;;;;;34.70;21.02;;;;;;;13.79;91.33;101536.62;143723;590;47009;-66
2024/01/05 06:31:24;;;;;;;45.25;23.42;;;;;;;13.82;91.05;101544.31;143722;590;47004;-66
2024/01/05 06:33:50;;;;;;;33.40;22.10;;;;;;;13.78;91.44;101543.88;143721;614;47006;-66
2024/01/05 06:36:17;;;;;;;44.45;21.75;;;;;;;13.86;91.29;101547.44;143723;616;47005;-67
2024/01/05 06:38:43;;;;;;;38.35;20.42;;;;;;;13.84;91.40;101546.81;143723;585;47008;-66
2024/01/05 06:41:09;;;;;;;38.95;18.65;;;;;;;13.90;91.83;101543.31;143719;593;47927;-66
2024/01/05 06:43:36;;;;;;;38.03;19.35;;;;;;;13.98;91.43;101545.00;143722;621;47000;-67
2024/01/05 06:46:02;;;;;;;50.08;18.73;;;;;;;13.98;91.78;101543.13;143723;579;47002;-68
2024/01/05 06:48:28;;;;;;;38.13;17.70;;;;;;;14.00;91.72;101549.16;143723;568;47006;-66
2024/01/05 06:50:55;;;;;;;32.75;18.10;;;;;;;14.09;92.15;101547.12;143720;669;47004;-67
2024/01/05 06:53:21;;;;;;;32.88;17.17;;;;;;;14.15;91.63;101538.22;143723;574;47006;-66
2024/01/05 06:55:47;;;;;;;36.15;17.17;;;;;;;14.22;90.95;101536.38;143726;574;47004;-66
2024/01/05 06:58:14;;;;;;;38.97;20.05;;;;;;;14.33;90.17;101534.94;143718;699;49015;-67
2024/01/05 07:00:40;;;;;;;41.33;21.98;;;;;;;14.42;88.97;101535.59;143723;572;47004;-66
2024/01/05 07:03:06;;;;;;;36.30;20.80;;;;;;;14.48;88.61;101542.03;143725;566;46006;-67
2024/01/05 07:05:33;;;;;;;38.25;21.90;;;;;;;14.54;88.00;101533.97;143724;582;47002;-65
2024/01/05 07:07:59;;;;;;;38.35;19.77;;;;;;;14.53;87.13;101543.13;143724;610;46008;-67
2024/01/05 07:10:25;;;;;;;42.38;18.83;;;;;;;14.55;86.92;101542.91;143723;572;47004;-67
2024/01/05 07:12:52;;;;;;;26.67;16.10;;;;;;;14.63;87.52;101547.28;143725;582;46007;-66
2024/01/05 07:15:18;;;;;;;31.27;17.60;;;;;;;14.67;87.79;101545.84;143726;594;47006;-67
2024/01/05 07:17:45;;;;;;;26.50;18.30;;;;;;;14.67;87.87;101557.47;143722;592;47008;-67
2024/01/05 07:20:11;;;;;;;42.35;19.83;;;;;;;14.66;87.66;101561.22;143723;619;47009;-66
2024/01/05 07:22:38;;;;;;;32.88;18.52;;;;;;;14.78;86.97;101566.91;143724;578;47006;-66
2024/01/05 07:25:09;;;;;;;34.47;18.67;;;;;;;14.88;87.89;101565.66;143723;647;47002;-67
2024/01/05 07:27:36;;;;;;;25.88;17.00;;;;;;;14.99;89.32;101565.91;143725;652;47008;-66
2024/01/05 07:30:04;;;;;;;30.67;17.60;;;;;;;15.02;89.33;101564.63;143722;604;47002;-68
2024/01/05 07:32:30;;;;;;;33.92;17.80;;;;;;;15.11;90.70;101578.78;143723;588;47006;-67
2024/01/05 07:34:57;;;;;;;34.05;18.27;;;;;;;15.18;91.77;101578.78;143724;578;47003;-66
2024/01/05 07:37:23;;;;;;;40.12;20.52;;;;;;;15.23;91.32;101574.41;143722;592;48918;-68
2024/01/05 07:39:49;;;;;;;38.35;23.27;;;;;;;15.27;90.61;101581.06;143724;583;47004;-67
2024/01/05 07:42:16;;;;;;;33.90;22.17;;;;;;;15.33;91.13;101575.87;143727;581;46007;-71
2024/01/05 07:44:42;;;;;;;34.63;20.70;;;;;;;15.47;90.66;101572.13;143723;583;47002;-71
2024/01/05 07:47:11;;;;;;;40.58;21.37;;;;;;;15.68;90.28;101579.16;143722;583;47008;-71
2024/01/05 07:49:40;;;;;;;37.58;18.75;;;;;;;15.81;88.69;101575.59;143722;585;47004;-71
2024/01/05 07:52:06;;;;;;;27.27;16.65;;;;;;;16.02;86.90;101574.50;143726;607;46006;-71
2024/01/05 07:54:32;;;;;;;27.73;14.45;;;;;;;16.15;84.71;101570.91;143725;577;47004;-69
2024/01/05 07:56:59;;;;;;;23.55;13.35;;;;;;;16.24;84.02;101562.56;143725;570;47004;-69
2024/01/05 07:59:25;;;;;;;21.20;11.52;;;;;;;16.29;83.23;101566.28;143723;583;47004;-70
2024/01/05 08:01:52;;;;;;;23.15;11.27;;;;;;;16.45;82.44;101569.53;143725;603;47006;-71
2024/01/05 08:04:18;;;;;;;29.35;11.82;;;;;;;16.63;80.58;101571.50;143722;574;48006;-72
2024/01/05 08:06:48;;;;;;;17.83;10.93;;;;;;;16.81;81.57;101573.47;143725;661;47010;-70
2024/01/05 08:09:15;;;;;;;24.55;13.15;;;;;;;17.02;80.75;101571.50;143724;611;47010;-72
2024/01/05 08:11:41;;;;;;;20.25;14.15;;;;;;;17.25;80.53;101579.84;143726;654;46006;-71
2024/01/05 08:14:08;;;;;;;22.25;13.45;;;;;;;17.35;79.11;101573.09;143723;647;47000;-76
2024/01/05 08:16:34;;;;;;;19.17;13.18;;;;;;;17.49;80.13;101580.03;143725;628;47008;-72
2024/01/05 08:19:01;;;;;;;23.77;12.85;;;;;;;17.66;77.59;101579.47;143725;605;46010;-72
2024/01/05 08:21:30;;;;;;;18.50;11.00;;;;;;;17.85;77.07;101577.56;143724;662;47002;-70
2024/01/05 08:24:02;;;;;;;21.17;11.10;;;;;;;18.16;76.14;101575.81;143725;597;47002;-70
2024/01/05 08:26:31;;;;;;;25.85;12.13;;;;;;;18.44;75.49;101571.66;143726;615;46010;-69
2024/01/05 08:29:00;;;;;;;23.83;10.60;;;;;;;18.60;75.68;101571.00;143726;573;47002;-72
2024/01/05 08:31:28;;;;;;;19.67;11.63;;;;;;;18.80;74.43;101572.59;143723;607;47006;-71
2024/01/05 08:33:57;;;;;;;21.33;12.00;;;;;;;18.92;75.12;101578.09;143724;573;47004;-70
2024/01/05 08:36:32;;;;;;;17.05;11.82;;;;;;;19.19;74.37;101583.94;143724;573;47010;-71
2024/01/05 08:39:05;;;;;;;17.62;10.43;;;;;;;19.45;73.10;101570.91;143724;622;47004;-70
2024/01/05 08:42:04;;;;;;;24.05;11.00;;;;;;;19.74;72.10;101581.94;143725;625;47004;-70
2024/01/05 08:44:57;;;;;;;;;;;;;;;;;;;;;
2024/01/05 08:47:26;;;;;;;20.90;10.77;;;;;;;20.21;69.37;101566.56;143722;588;47010;-70
2024/01/05 08:49:53;;;;;;;20.70;10.85;;;;;;;20.38;68.88;101572.87;143722;889;47004;-70
2024/01/05 08:52:21;;;;;;;17.10;10.80;;;;;;;20.43;69.33;101578.44;143725;584;46006;-69
2024/01/05 08:54:50;;;;;;;15.25;8.85;;;;;;;20.62;68.42;101577.41;143726;566;47004;-70
2024/01/05 08:57:21;;;;;;;23.45;11.95;;;;;;;20.88;68.77;101578.72;143724;577;47010;-70
2024/01/05 09:00:00;;;;;;;17.45;10.90;;;;;;;21.18;66.79;101581.12;143721;927;47004;-70
2024/01/05 09:02:28;;;;;;;19.50;11.00;;;;;;;21.22;66.25;101584.19;143729;576;46006;-70
2024/01/05 09:05:05;;;;;;;;;;;;;;;;;;;;;
2024/01/05 09:07:38;;;;;;;29.65;13.85;;;;;;;21.70;66.18;101601.03;143730;984;47006;-71
2024/01/05 09:10:13;;;;;;;22.98;13.70;;;;;;;21.76;65.78;101600.03;143730;709;47004;-69
2024/01/05 09:12:45;;;;;;;22.02;13.00;;;;;;;22.10;66.09;101599.09;143730;972;47006;-70
2024/01/05 09:15:29;;;;;;;;;;;;;;;;;;;;;
2024/01/05 09:18:11;;;;;;;20.00;12.98;;;;;;;31.07;49.47;101594.78;143730;701;47007;-69
2024/01/05 09:20:53;;;;;;;20.80;12.07;;;;;;;31.94;44.24;101585.19;143731;596;47004;-70
2024/01/05 09:23:21;;;;;;;18.05;12.15;;;;;;;31.57;43.05;101590.13;143730;592;47006;-70
2024/01/05 09:25:49;;;;;;;22.80;12.07;;;;;;;30.61;44.11;101582.09;143732;589;47003;-70
2024/01/05 09:28:21;;;;;;;19.05;11.00;;;;;;;30.47;43.64;101588.44;143729;604;47011;-70
2024/01/05 09:30:53;;;;;;;16.77;10.40;;;;;;;30.64;42.65;101586.97;143730;630;47004;-70
2024/01/05 09:33:24;;;;;;;16.85;9.38;;;;;;;30.53;44.42;101592.75;143731;709;47006;-70
2024/01/05 09:35:56;;;;;;;18.23;7.40;;;;;;;30.09;44.74;101580.47;143735;592;46020;-70
2024/01/05 09:38:33;;;;;;;11.10;7.20;;;;;;;29.88;46.01;101578.12;143732;583;47008;-71
2024/01/05 09:41:05;;;;;;;10.35;6.22;;;;;;;29.72;47.08;101574.03;143732;599;47004;-71
2024/01/05 09:43:33;;;;;;;11.10;6.12;;;;;;;29.86;47.64;101574.00;143730;585;47006;-70
2024/01/05 09:46:00;;;;;;;10.43;5.78;;;;;;;29.81;46.41;101569.41;143725;634;49006;-70
2024/01/05 09:48:28;;;;;;;10.85;5.22;;;;;;;29.62;48.16;101567.56;143734;597;46023;-70
2024/01/05 09:51:13;;;;;;;10.10;5.35;;;;;;;29.45;47.94;101556.28;143729;579;47004;-71
2024/01/05 09:53:40;;;;;;;8.02;4.72;;;;;;;29.49;49.19;101560.91;143731;653;47006;-70
2024/01/05 09:56:15;;;;;;;7.40;5.00;;;;;;;29.58;49.46;101561.00;143733;629;47002;-70
2024/01/05 09:58:48;;;;;;;9.77;4.70;;;;;;;29.44;48.38;101561.00;143730;608;46010;-71
2024/01/05 10:01:33;;;;;;;12.40;5.80;;;;;;;29.50;49.27;101558.97;143726;683;47924;-70
2024/01/05 10:04:16;;;;;;;10.02;5.80;;;;;;;29.88;48.62;101557.91;143725;589;47006;-70
2024/01/05 10:06:43;;;;;;;10.80;5.68;;;;;;;30.21;46.98;101544.72;143724;631;47004;-70
2024/01/05 10:09:15;;;;;;;12.68;6.30;;;;;;;30.44;47.08;101544.75;143725;734;47010;-71
2024/01/05 10:11:47;;;;;;;16.43;5.10;;;;;;;30.77;46.95;101536.19;143721;575;47004;-71
2024/01/05 10:14:18;;;;;;;12.52;5.55;;;;;;;31.15;45.46;101541.31;143726;589;47006;-71
2024/01/05 10:16:49;;;;;;;9.65;5.47;;;;;;;31.62;44.31;101520.56;143725;623;46915;-71
2024/01/05 10:19:35;;;;;;;12.90;6.37;;;;;;;32.59;42.81;101507.53;143725;592;47008;-70
2024/01/05 10:22:29;;;;;;;8.45;5.20;;;;;;;34.25;40.87;101496.69;143726;672;47008;-70
2024/01/05 10:25:32;;;;;;;;;;;;;;;;;;;;;
2024/01/05 10:28:28;;;;;;;12.50;6.20;;;;;;;38.05;35.03;101461.88;143729;572;46006;-70
2024/01/05 10:31:18;;;;;;;11.25;5.50;;;;;;;40.41;31.53;101444.47;143725;636;46923;-70
2024/01/05 10:33:55;;;;;;;11.77;5.70;;;;;;;38.56;31.59;101446.81;143724;586;47005;-70
2024/01/05 10:36:27;;;;;;;13.32;6.30;;;;;;;34.59;35.48;101446.50;143724;589;46924;-70
2024/01/05 10:38:56;;;;;;;9.98;5.80;;;;;;;32.58;37.22;101450.28;143726;581;47002;-70
2024/01/05 10:41:45;;;;;;;11.07;6.30;;;;;;;31.28;38.98;101444.41;143725;641;47010;-70
2024/01/05 10:44:17;;;;;;;11.93;6.80;;;;;;;30.30;40.73;101456.12;143723;572;47004;-70
2024/01/05 10:46:51;;;;;;;8.32;6.20;;;;;;;30.09;41.55;101451.09;143724;593;47006;-70
2024/01/05 10:50:04;;;;;;;9.65;6.80;;;;;;;30.11;42.04;101450.75;143725;597;47002;-70
2024/01/05 10:52:34;;;;;;;12.57;7.07;;;;;;;30.42;41.43;101451.94;143727;625;46016;-70
2024/01/05 10:55:11;;;;;;;8.23;5.28;;;;;;;30.45;41.89;101456.87;143723;581;47004;-70
2024/01/05 10:57:42;;;;;;;7.60;5.05;;;;;;;30.88;41.97;101458.25;143725;579;47006;-70
2024/01/05 11:00:12;;;;;;;8.00;5.40;;;;;;;30.96;41.46;101463.84;143727;574;46017;-71
2024/01/05 11:02:52;;;;;;;10.30;5.53;;;;;;;30.57;41.90;101459.91;143723;606;47010;-71
2024/01/05 11:05:24;;;;;;;8.85;4.65;;;;;;;30.13;42.01;101464.31;143722;573;47004;-70
2024/01/05 11:07:55;;;;;;;11.30;5.12;;;;;;;29.97;42.65;101467.44;143723;575;47004;-70
2024/01/05 11:10:54;;;;;;;9.50;5.18;;;;;;;30.02;42.77;101458.19;143724;612;47002;-70
2024/01/05 11:13:42;;;;;;;6.30;4.93;;;;;;;30.38;41.60;101449.81;143726;667;46010;-70
2024/01/05 11:16:50;;;;;;;7.57;4.18;;;;;;;30.46;41.93;101439.09;143722;572;47004;-70
2024/01/05 11:19:43;;;;;;;5.43;3.83;;;;;;;30.53;42.64;101431.97;143725;572;47006;-69
2024/01/05 11:22:22;;;;;;;6.62;4.22;;;;;;;30.57;41.56;101423.06;143720;578;49006;-70
2024/01/05 11:25:06;;;;;;;6.55;4.87;;;;;;;30.57;40.04;101415.53;143724;599;47010;-70
2024/01/05 11:27:34;;;;;;;10.38;4.80;;;;;;;30.61;40.92;101411.00;143724;589;47004;-70
2024/01/05 11:30:02;;;;;;;9.82;4.50;;;;;;;30.69;39.86;101403.84;143726;592;46006;-71
2024/01/05 11:32:54;;;;;;;8.90;4.87;;;;;;;30.29;40.84;101399.06;143724;604;47003;-70
2024/01/05 11:35:43;;;;;;;11.12;4.20;;;;;;;29.74;41.47;101395.38;143727;597;46010;-71
2024/01/05 11:38:26;;;;;;;8.02;5.55;;;;;;;29.87;41.10;101390.09;143724;590;47002;-70
2024/01/05 11:40:52;;;;;;;11.32;4.85;;;;;;;30.51;40.84;101378.81;143726;585;47006;-72
2024/01/05 11:43:35;;;;;;;10.57;4.85;;;;;;;31.02;40.06;101366.63;143726;626;47004;-70
2024/01/05 11:46:02;;;;;;;7.90;4.20;;;;;;;31.36;39.54;101362.28;143722;674;47010;-70
2024/01/05 11:48:53;;;;;;;7.43;4.37;;;;;;;31.58;39.25;101369.66;143725;766;47005;-71
2024/01/05 11:51:20;;;;;;;10.38;4.93;;;;;;;31.79;39.77;101357.91;143722;603;46006;-71
2024/01/05 11:53:48;;;;;;;11.35;5.43;;;;;;;31.84;38.85;101355.78;143727;639;47004;-70
2024/01/05 11:56:21;;;;;;;11.68;5.55;;;;;;;31.82;39.26;101352.50;143726;677;46010;-69
2024/01/05 11:58:48;;;;;;;15.63;5.20;;;;;;;32.13;38.48;101348.66;143724;677;47004;-70
2024/01/05 12:01:16;;;;;;;10.35;5.28;;;;;;;32.25;38.16;101352.75;143726;662;47006;-70
2024/01/05 12:03:43;;;;;;;10.02;5.53;;;;;;;31.74;38.55;101356.13;143725;575;47002;-71
2024/01/05 12:06:10;;;;;;;8.35;5.82;;;;;;;31.33;38.82;101341.53;143726;596;47010;-70
2024/01/05 12:08:38;;;;;;;10.05;5.62;;;;;;;31.30;39.10;101348.56;143723;572;47004;-70
2024/01/05 12:11:08;;;;;;;11.98;5.12;;;;;;;31.20;38.98;101345.28;143725;599;46007;-69
2024/01/05 12:13:35;;;;;;;8.18;5.70;;;;;;;31.21;39.11;101347.75;143727;572;47004;-72
2024/01/05 12:16:06;;;;;;;12.50;5.43;;;;;;;30.50;39.80;101346.66;143726;584;46017;-70
2024/01/05 12:18:52;;;;;;;9.00;5.25;;;;;;;30.48;39.86;101346.16;143725;586;47004;-70
2024/01/05 12:21:20;;;;;;;10.32;5.43;;;;;;;29.67;41.93;101352.66;143726;578;47006;-69
2024/01/05 12:23:55;;;;;;;13.40;5.60;;;;;;;28.79;42.55;101352.59;143725;590;47002;-69
2024/01/05 12:26:21;;;;;;;7.10;5.10;;;;;;;27.98;43.12;101351.81;143724;598;47008;-69
2024/01/05 12:28:49;;;;;;;9.50;6.07;;;;;;;27.45;43.62;101352.03;143722;584;47004;-71
2024/01/05 12:31:17;;;;;;;11.90;5.45;;;;;;;27.03;44.00;101343.50;143725;623;46006;-69
2024/01/05 12:33:45;;;;;;;7.35;4.80;;;;;;;26.67;44.46;101352.97;143724;588;47002;-70
2024/01/05 12:36:23;;;;;;;11.57;5.62;;;;;;;26.23;45.35;101354.81;143723;634;47010;-69
2024/01/05 12:38:50;;;;;;;8.15;5.00;;;;;;;25.84;45.67;101359.22;143719;576;48004;-70
2024/01/05 12:41:19;;;;;;;10.57;5.30;;;;;;;25.43;46.46;101360.31;143719;597;47923;-69
2024/01/05 12:43:47;;;;;;;7.18;5.10;;;;;;;25.24;46.74;101371.09;143723;610;47002;-68
2024/01/05 12:46:17;;;;;;;10.30;5.28;;;;;;;24.75;48.43;101369.09;143723;585;47008;-69
2024/01/05 12:48:46;;;;;;;6.95;4.28;;;;;;;24.56;49.21;101371.59;143724;592;47002;-68
2024/01/05 12:51:20;;;;;;;8.45;4.68;;;;;;;24.57;49.98;101374.03;143724;615;47006;-69
2024/01/05 12:53:57;;;;;;;9.43;4.25;;;;;;;24.57;50.73;101374.03;143723;580;47002;-69
2024/01/05 12:56:24;;;;;;;6.20;3.47;;;;;;;24.40;51.51;101374.34;143723;590;47008;-69
2024/01/05 12:58:51;;;;;;;5.43;2.60;;;;;;;24.20;52.36;101375.19;143720;635;47004;-68
2024/01/05 13:01:19;;;;;;;7.37;3.20;;;;;;;24.02;52.78;101373.81;143720;617;47002;-70
2024/01/05 13:04:08;;;;;;;6.15;3.37;;;;;;;23.92;53.96;101369.91;143725;615;47004;-70
2024/01/05 13:06:38;;;;;;;8.88;3.75;;;;;;;23.60;54.24;101370.16;143721;579;47008;-69
2024/01/05 13:09:04;;;;;;;7.15;3.10;;;;;;;23.44;54.01;101369.28;143721;629;47004;-71
2024/01/05 13:11:30;;;;;;;7.20;4.15;;;;;;;23.37;54.71;101371.47;143725;573;46006;-68
2024/01/05 13:13:57;;;;;;;7.25;3.47;;;;;;;23.27;54.55;101369.53;143723;704;47002;-70
2024/01/05 13:16:23;;;;;;;6.37;3.85;;;;;;;23.19;55.71;101373.56;143723;679;46010;-69
2024/01/05 13:18:50;;;;;;;7.32;3.70;;;;;;;23.11;54.74;101383.13;143720;596;47004;-69
2024/01/05 13:21:16;;;;;;;6.28;3.40;;;;;;;22.99;54.49;101396.19;143723;661;46006;-68
2024/01/05 13:23:43;;;;;;;8.48;3.15;;;;;;;22.88;54.10;101395.31;143723;662;47004;-69
2024/01/05 13:26:10;;;;;;;10.80;4.47;;;;;;;22.86;54.06;101392.84;143724;601;46011;-68
2024/01/05 13:28:36;;;;;;;6.55;3.55;;;;;;;22.76;53.75;101397.44;143720;586;47004;-67
2024/01/05 13:31:03;;;;;;;6.80;2.72;;;;;;;22.60;52.93;101388.28;143724;574;46006;-70
2024/01/05 13:33:29;;;;;;;6.65;2.45;;;;;;;22.51;52.64;101394.28;143723;616;47002;-68